sensor_id;sensor_type;location;lat;lon;timestamp;temperature;humidity
44047;DHT22;29713;-33.888;151.150;2023-08-20T00:01:25;18.60;99.90
44047;DHT22;29713;-33.888;151.150;2023-08-20T00:03:54;18.70;99.90
44047;DHT22;29713;-33.888;151.150;2023-08-20T00:06:22;18.90;99.90
44047;DHT22;29713;-33.888;151.150;2023-08-20T00:08:50;19.00;99.90
44047;DHT22;29713;-33.888;151.150;2023-08-20T00:11:17;19.10;99.90
44047;DHT22;29713;-33.888;151.150;2023-08-20T00:13:44;19.30;99.90
44047;DHT22;29713;-33.888;151.150;2023-08-20T00:16:12;19.30;99.90
44047;DHT22;29713;-33.888;151.150;2023-08-20T00:18:40;19.50;99.90
44047;DHT22;29713;-33.888;151.150;2023-08-20T00:21:08;19.60;99.90
44047;DHT22;29713;-33.888;151.150;2023-08-20T00:23:36;19.70;99.90
44047;DHT22;29713;-33.888;151.150;2023-08-20T00:26:04;19.80;99.90
44047;DHT22;29713;-33.888;151.150;2023-08-20T00:28:31;20.00;99.90
44047;DHT22;29713;-33.888;151.150;2023-08-20T00:31:03;20.00;99.90
44047;DHT22;29713;-33.888;151.150;2023-08-20T00:33:31;20.10;99.90
44047;DHT22;29713;-33.888;151.150;2023-08-20T00:35:59;20.20;99.90
44047;DHT22;29713;-33.888;151.150;2023-08-20T00:38:26;20.30;99.90
44047;DHT22;29713;-33.888;151.150;2023-08-20T00:40:53;20.40;99.90
44047;DHT22;29713;-33.888;151.150;2023-08-20T00:43:21;20.50;99.90
44047;DHT22;29713;-33.888;151.150;2023-08-20T00:45:48;20.60;99.90
44047;DHT22;29713;-33.888;151.150;2023-08-20T00:48:16;20.70;99.90
44047;DHT22;29713;-33.888;151.150;2023-08-20T00:50:44;20.80;99.90
44047;DHT22;29713;-33.888;151.150;2023-08-20T00:53:12;20.90;99.90
44047;DHT22;29713;-33.888;151.150;2023-08-20T00:55:42;21.00;99.90
44047;DHT22;29713;-33.888;151.150;2023-08-20T00:58:10;21.20;99.90
44047;DHT22;29713;-33.888;151.150;2023-08-20T01:00:38;21.40;99.90
44047;DHT22;29713;-33.888;151.150;2023-08-20T01:03:05;21.70;99.90
44047;DHT22;29713;-33.888;151.150;2023-08-20T01:05:38;22.00;99.90
44047;DHT22;29713;-33.888;151.150;2023-08-20T01:11:08;22.20;99.90
44047;DHT22;29713;-33.888;151.150;2023-08-20T01:13:37;22.30;99.90
44047;DHT22;29713;-33.888;151.150;2023-08-20T01:16:04;22.30;99.90
44047;DHT22;29713;-33.888;151.150;2023-08-20T01:18:32;22.40;99.90
44047;DHT22;29713;-33.888;151.150;2023-08-20T01:21:02;22.80;99.90
44047;DHT22;29713;-33.888;151.150;2023-08-20T01:28:54;23.60;99.90
44047;DHT22;29713;-33.888;151.150;2023-08-20T01:31:23;23.50;99.90
44047;DHT22;29713;-33.888;151.150;2023-08-20T01:33:53;23.60;99.90
44047;DHT22;29713;-33.888;151.150;2023-08-20T01:36:20;23.30;99.90
44047;DHT22;29713;-33.888;151.150;2023-08-20T01:38:48;23.40;99.90
44047;DHT22;29713;-33.888;151.150;2023-08-20T01:41:16;23.40;99.90
44047;DHT22;29713;-33.888;151.150;2023-08-20T01:43:43;23.60;99.90
44047;DHT22;29713;-33.888;151.150;2023-08-20T01:46:10;23.90;99.90
44047;DHT22;29713;-33.888;151.150;2023-08-20T01:48:39;24.10;99.90
44047;DHT22;29713;-33.888;151.150;2023-08-20T01:51:06;24.10;99.90
44047;DHT22;29713;-33.888;151.150;2023-08-20T01:53:35;24.20;99.90
44047;DHT22;29713;-33.888;151.150;2023-08-20T01:56:02;24.40;99.90
44047;DHT22;29713;-33.888;151.150;2023-08-20T01:58:29;24.60;99.90
44047;DHT22;29713;-33.888;151.150;2023-08-20T02:00:58;24.60;99.90
44047;DHT22;29713;-33.888;151.150;2023-08-20T02:03:26;25.10;99.20
44047;DHT22;29713;-33.888;151.150;2023-08-20T02:05:53;25.40;99.50
44047;DHT22;29713;-33.888;151.150;2023-08-20T02:08:21;25.80;99.00
44047;DHT22;29713;-33.888;151.150;2023-08-20T02:10:48;26.20;98.20
44047;DHT22;29713;-33.888;151.150;2023-08-20T02:13:15;26.30;97.00
44047;DHT22;29713;-33.888;151.150;2023-08-20T02:15:43;26.40;96.00
44047;DHT22;29713;-33.888;151.150;2023-08-20T02:18:10;26.50;94.10
44047;DHT22;29713;-33.888;151.150;2023-08-20T02:20:37;26.70;93.80
44047;DHT22;29713;-33.888;151.150;2023-08-20T02:23:04;27.10;91.90
44047;DHT22;29713;-33.888;151.150;2023-08-20T02:25:32;27.30;90.90
44047;DHT22;29713;-33.888;151.150;2023-08-20T02:27:59;27.80;87.40
44047;DHT22;29713;-33.888;151.150;2023-08-20T02:30:27;27.80;82.40
44047;DHT22;29713;-33.888;151.150;2023-08-20T02:32:54;27.60;86.70
44047;DHT22;29713;-33.888;151.150;2023-08-20T02:35:21;28.00;84.90
44047;DHT22;29713;-33.888;151.150;2023-08-20T02:37:48;28.50;85.40
44047;DHT22;29713;-33.888;151.150;2023-08-20T02:40:16;28.90;85.10
44047;DHT22;29713;-33.888;151.150;2023-08-20T02:42:43;29.50;83.70
44047;DHT22;29713;-33.888;151.150;2023-08-20T02:45:10;29.40;81.90
44047;DHT22;29713;-33.888;151.150;2023-08-20T02:47:38;29.50;81.90
44047;DHT22;29713;-33.888;151.150;2023-08-20T02:50:05;29.30;79.60
44047;DHT22;29713;-33.888;151.150;2023-08-20T02:52:33;28.90;79.80
44047;DHT22;29713;-33.888;151.150;2023-08-20T02:55:00;29.00;79.80
44047;DHT22;29713;-33.888;151.150;2023-08-20T02:57:27;29.00;77.50
44047;DHT22;29713;-33.888;151.150;2023-08-20T02:59:54;29.00;78.30
44047;DHT22;29713;-33.888;151.150;2023-08-20T03:02:22;29.30;78.60
44047;DHT22;29713;-33.888;151.150;2023-08-20T03:04:49;29.40;75.10
44047;DHT22;29713;-33.888;151.150;2023-08-20T03:07:17;29.10;75.20
44047;DHT22;29713;-33.888;151.150;2023-08-20T03:09:44;29.40;75.10
44047;DHT22;29713;-33.888;151.150;2023-08-20T03:12:11;29.40;75.00
44047;DHT22;29713;-33.888;151.150;2023-08-20T03:14:39;29.40;73.40
44047;DHT22;29713;-33.888;151.150;2023-08-20T03:17:06;29.20;73.00
44047;DHT22;29713;-33.888;151.150;2023-08-20T03:19:34;29.10;73.90
44047;DHT22;29713;-33.888;151.150;2023-08-20T03:22:02;29.20;74.50
44047;DHT22;29713;-33.888;151.150;2023-08-20T03:24:29;29.20;73.90
44047;DHT22;29713;-33.888;151.150;2023-08-20T03:26:56;29.10;70.70
44047;DHT22;29713;-33.888;151.150;2023-08-20T03:29:23;28.90;73.30
44047;DHT22;29713;-33.888;151.150;2023-08-20T03:31:50;29.40;73.00
44047;DHT22;29713;-33.888;151.150;2023-08-20T03:34:17;29.90;71.30
44047;DHT22;29713;-33.888;151.150;2023-08-20T03:36:44;29.80;71.90
44047;DHT22;29713;-33.888;151.150;2023-08-20T03:39:11;30.00;71.30
44047;DHT22;29713;-33.888;151.150;2023-08-20T03:41:39;30.30;70.70
44047;DHT22;29713;-33.888;151.150;2023-08-20T03:44:06;30.50;71.20
44047;DHT22;29713;-33.888;151.150;2023-08-20T03:46:34;30.40;68.10
44047;DHT22;29713;-33.888;151.150;2023-08-20T03:49:01;30.20;67.00
44047;DHT22;29713;-33.888;151.150;2023-08-20T03:51:29;30.00;67.90
44047;DHT22;29713;-33.888;151.150;2023-08-20T03:53:56;29.60;68.10
44047;DHT22;29713;-33.888;151.150;2023-08-20T03:56:23;29.40;68.80
44047;DHT22;29713;-33.888;151.150;2023-08-20T03:58:51;29.50;68.90
44047;DHT22;29713;-33.888;151.150;2023-08-20T04:01:19;29.80;70.10
44047;DHT22;29713;-33.888;151.150;2023-08-20T04:03:47;29.80;69.20
44047;DHT22;29713;-33.888;151.150;2023-08-20T04:06:15;29.80;69.30
44047;DHT22;29713;-33.888;151.150;2023-08-20T04:08:42;29.50;69.30
44047;DHT22;29713;-33.888;151.150;2023-08-20T04:11:09;28.80;70.80
44047;DHT22;29713;-33.888;151.150;2023-08-20T04:13:37;28.40;71.70
44047;DHT22;29713;-33.888;151.150;2023-08-20T04:16:04;28.10;72.40
44047;DHT22;29713;-33.888;151.150;2023-08-20T04:18:31;28.00;72.30
44047;DHT22;29713;-33.888;151.150;2023-08-20T04:20:59;27.90;72.90
44047;DHT22;29713;-33.888;151.150;2023-08-20T04:23:26;27.80;72.70
44047;DHT22;29713;-33.888;151.150;2023-08-20T04:25:53;27.60;72.90
44047;DHT22;29713;-33.888;151.150;2023-08-20T04:28:21;27.50;73.30
44047;DHT22;29713;-33.888;151.150;2023-08-20T04:30:48;27.40;72.70
44047;DHT22;29713;-33.888;151.150;2023-08-20T04:33:16;27.30;73.60
44047;DHT22;29713;-33.888;151.150;2023-08-20T04:35:43;27.20;72.10
44047;DHT22;29713;-33.888;151.150;2023-08-20T04:38:10;26.70;71.60
44047;DHT22;29713;-33.888;151.150;2023-08-20T04:40:38;26.40;71.90
44047;DHT22;29713;-33.888;151.150;2023-08-20T04:43:05;26.10;72.70
44047;DHT22;29713;-33.888;151.150;2023-08-20T04:45:32;25.90;73.70
44047;DHT22;29713;-33.888;151.150;2023-08-20T04:48:00;26.00;74.40
44047;DHT22;29713;-33.888;151.150;2023-08-20T04:50:27;26.10;74.40
44047;DHT22;29713;-33.888;151.150;2023-08-20T04:52:55;26.30;73.30
44047;DHT22;29713;-33.888;151.150;2023-08-20T04:55:22;26.00;73.60
44047;DHT22;29713;-33.888;151.150;2023-08-20T04:57:49;25.90;74.20
44047;DHT22;29713;-33.888;151.150;2023-08-20T05:00:16;25.70;74.70
44047;DHT22;29713;-33.888;151.150;2023-08-20T05:02:44;25.60;75.40
44047;DHT22;29713;-33.888;151.150;2023-08-20T05:05:12;25.60;76.10
44047;DHT22;29713;-33.888;151.150;2023-08-20T05:07:39;25.30;75.20
44047;DHT22;29713;-33.888;151.150;2023-08-20T05:10:08;25.20;75.40
44047;DHT22;29713;-33.888;151.150;2023-08-20T05:12:36;24.80;76.10
44047;DHT22;29713;-33.888;151.150;2023-08-20T05:15:04;24.70;77.80
44047;DHT22;29713;-33.888;151.150;2023-08-20T05:17:31;24.90;78.80
44047;DHT22;29713;-33.888;151.150;2023-08-20T05:19:58;24.80;77.70
44047;DHT22;29713;-33.888;151.150;2023-08-20T05:22:26;24.90;78.30
44047;DHT22;29713;-33.888;151.150;2023-08-20T05:24:53;24.80;78.20
44047;DHT22;29713;-33.888;151.150;2023-08-20T05:27:20;24.40;77.40
44047;DHT22;29713;-33.888;151.150;2023-08-20T05:29:48;24.20;77.90
44047;DHT22;29713;-33.888;151.150;2023-08-20T05:32:15;24.10;77.90
44047;DHT22;29713;-33.888;151.150;2023-08-20T05:34:43;23.80;77.80
44047;DHT22;29713;-33.888;151.150;2023-08-20T05:37:10;23.60;77.80
44047;DHT22;29713;-33.888;151.150;2023-08-20T05:39:40;23.40;78.60
44047;DHT22;29713;-33.888;151.150;2023-08-20T05:42:08;23.10;79.50
44047;DHT22;29713;-33.888;151.150;2023-08-20T05:44:35;22.80;81.40
44047;DHT22;29713;-33.888;151.150;2023-08-20T05:47:03;22.40;83.20
44047;DHT22;29713;-33.888;151.150;2023-08-20T05:49:32;22.10;83.00
44047;DHT22;29713;-33.888;151.150;2023-08-20T05:51:59;22.10;84.30
44047;DHT22;29713;-33.888;151.150;2023-08-20T05:54:26;21.90;84.00
44047;DHT22;29713;-33.888;151.150;2023-08-20T05:56:53;21.80;84.30
44047;DHT22;29713;-33.888;151.150;2023-08-20T05:59:21;21.60;86.70
44047;DHT22;29713;-33.888;151.150;2023-08-20T06:01:48;21.50;88.40
44047;DHT22;29713;-33.888;151.150;2023-08-20T06:04:15;21.40;89.00
44047;DHT22;29713;-33.888;151.150;2023-08-20T06:06:44;21.40;89.40
44047;DHT22;29713;-33.888;151.150;2023-08-20T06:09:12;21.40;89.50
44047;DHT22;29713;-33.888;151.150;2023-08-20T06:11:39;21.40;89.70
44047;DHT22;29713;-33.888;151.150;2023-08-20T06:14:07;21.30;90.00
44047;DHT22;29713;-33.888;151.150;2023-08-20T06:16:34;21.20;90.20
44047;DHT22;29713;-33.888;151.150;2023-08-20T06:19:04;21.00;91.00
44047;DHT22;29713;-33.888;151.150;2023-08-20T06:21:31;20.90;91.60
44047;DHT22;29713;-33.888;151.150;2023-08-20T06:23:58;20.80;92.30
44047;DHT22;29713;-33.888;151.150;2023-08-20T06:26:26;20.80;93.00
44047;DHT22;29713;-33.888;151.150;2023-08-20T06:28:53;20.70;94.00
44047;DHT22;29713;-33.888;151.150;2023-08-20T06:31:20;20.60;95.20
44047;DHT22;29713;-33.888;151.150;2023-08-20T06:33:48;20.50;96.00
44047;DHT22;29713;-33.888;151.150;2023-08-20T06:36:15;20.30;97.10
44047;DHT22;29713;-33.888;151.150;2023-08-20T06:38:42;20.20;98.50
44047;DHT22;29713;-33.888;151.150;2023-08-20T06:41:10;20.00;99.90
44047;DHT22;29713;-33.888;151.150;2023-08-20T06:43:37;19.90;99.90
44047;DHT22;29713;-33.888;151.150;2023-08-20T06:46:04;19.80;99.90
44047;DHT22;29713;-33.888;151.150;2023-08-20T06:48:31;19.80;99.90
44047;DHT22;29713;-33.888;151.150;2023-08-20T06:50:59;19.80;99.90
44047;DHT22;29713;-33.888;151.150;2023-08-20T06:53:34;19.70;99.90
44047;DHT22;29713;-33.888;151.150;2023-08-20T06:56:01;19.60;99.90
44047;DHT22;29713;-33.888;151.150;2023-08-20T06:58:29;19.50;99.90
44047;DHT22;29713;-33.888;151.150;2023-08-20T07:00:56;19.40;99.90
44047;DHT22;29713;-33.888;151.150;2023-08-20T07:03:43;19.30;99.90
44047;DHT22;29713;-33.888;151.150;2023-08-20T07:06:11;19.30;99.90
44047;DHT22;29713;-33.888;151.150;2023-08-20T07:08:41;19.20;99.90
44047;DHT22;29713;-33.888;151.150;2023-08-20T07:11:08;19.10;99.90
44047;DHT22;29713;-33.888;151.150;2023-08-20T07:13:36;19.00;99.90
44047;DHT22;29713;-33.888;151.150;2023-08-20T07:16:03;18.90;99.90
44047;DHT22;29713;-33.888;151.150;2023-08-20T07:18:31;18.90;99.90
44047;DHT22;29713;-33.888;151.150;2023-08-20T07:20:58;18.80;99.90
44047;DHT22;29713;-33.888;151.150;2023-08-20T07:23:25;18.80;99.90
44047;DHT22;29713;-33.888;151.150;2023-08-20T07:26:07;18.70;99.90
44047;DHT22;29713;-33.888;151.150;2023-08-20T07:28:35;18.70;99.90
44047;DHT22;29713;-33.888;151.150;2023-08-20T07:31:21;18.70;99.90
44047;DHT22;29713;-33.888;151.150;2023-08-20T07:33:49;18.60;99.90
44047;DHT22;29713;-33.888;151.150;2023-08-20T07:36:17;18.60;99.90
44047;DHT22;29713;-33.888;151.150;2023-08-20T07:38:45;18.50;99.90
44047;DHT22;29713;-33.888;151.150;2023-08-20T07:41:12;18.50;99.90
44047;DHT22;29713;-33.888;151.150;2023-08-20T07:43:40;18.40;99.90
44047;DHT22;29713;-33.888;151.150;2023-08-20T07:46:09;18.40;99.90
44047;DHT22;29713;-33.888;151.150;2023-08-20T07:48:36;18.40;99.90
44047;DHT22;29713;-33.888;151.150;2023-08-20T07:51:04;18.40;99.90
44047;DHT22;29713;-33.888;151.150;2023-08-20T07:53:32;18.30;99.90
44047;DHT22;29713;-33.888;151.150;2023-08-20T07:56:00;18.30;99.90
44047;DHT22;29713;-33.888;151.150;2023-08-20T07:58:27;18.30;99.90
44047;DHT22;29713;-33.888;151.150;2023-08-20T08:00:56;18.20;99.90
44047;DHT22;29713;-33.888;151.150;2023-08-20T08:03:25;18.20;99.90
44047;DHT22;29713;-33.888;151.150;2023-08-20T08:05:55;18.20;99.90
44047;DHT22;29713;-33.888;151.150;2023-08-20T08:08:23;18.20;99.90
44047;DHT22;29713;-33.888;151.150;2023-08-20T08:10:51;18.10;99.90
44047;DHT22;29713;-33.888;151.150;2023-08-20T08:13:21;18.00;99.90
44047;DHT22;29713;-33.888;151.150;2023-08-20T08:15:49;18.00;99.90
44047;DHT22;29713;-33.888;151.150;2023-08-20T08:18:19;17.90;99.90
44047;DHT22;29713;-33.888;151.150;2023-08-20T08:20:47;18.00;99.90
44047;DHT22;29713;-33.888;151.150;2023-08-20T08:23:14;17.90;99.90
44047;DHT22;29713;-33.888;151.150;2023-08-20T08:25:41;17.90;99.90
44047;DHT22;29713;-33.888;151.150;2023-08-20T08:28:08;17.90;99.90
44047;DHT22;29713;-33.888;151.150;2023-08-20T08:30:36;17.90;99.90
44047;DHT22;29713;-33.888;151.150;2023-08-20T08:33:04;17.80;99.90
44047;DHT22;29713;-33.888;151.150;2023-08-20T08:35:31;17.80;99.90
44047;DHT22;29713;-33.888;151.150;2023-08-20T08:37:59;17.80;99.90
44047;DHT22;29713;-33.888;151.150;2023-08-20T08:40:29;17.70;99.90
44047;DHT22;29713;-33.888;151.150;2023-08-20T08:42:57;17.70;99.90
44047;DHT22;29713;-33.888;151.150;2023-08-20T08:45:25;17.70;99.90
44047;DHT22;29713;-33.888;151.150;2023-08-20T08:47:54;17.70;99.90
44047;DHT22;29713;-33.888;151.150;2023-08-20T08:50:22;17.60;99.90
44047;DHT22;29713;-33.888;151.150;2023-08-20T08:52:51;17.60;99.90
44047;DHT22;29713;-33.888;151.150;2023-08-20T08:55:19;17.60;99.90
44047;DHT22;29713;-33.888;151.150;2023-08-20T08:57:46;17.60;99.90
44047;DHT22;29713;-33.888;151.150;2023-08-20T09:00:14;17.60;99.90
44047;DHT22;29713;-33.888;151.150;2023-08-20T09:02:42;17.60;99.90
44047;DHT22;29713;-33.888;151.150;2023-08-20T09:05:09;17.50;99.90
44047;DHT22;29713;-33.888;151.150;2023-08-20T09:07:42;17.50;99.90
44047;DHT22;29713;-33.888;151.150;2023-08-20T09:10:10;17.50;99.90
44047;DHT22;29713;-33.888;151.150;2023-08-20T09:12:38;17.40;99.90
44047;DHT22;29713;-33.888;151.150;2023-08-20T09:15:11;17.40;99.90
44047;DHT22;29713;-33.888;151.150;2023-08-20T09:17:40;17.40;99.90
44047;DHT22;29713;-33.888;151.150;2023-08-20T09:20:08;17.40;99.90
44047;DHT22;29713;-33.888;151.150;2023-08-20T09:22:36;17.40;99.90
44047;DHT22;29713;-33.888;151.150;2023-08-20T09:25:04;17.40;99.90
44047;DHT22;29713;-33.888;151.150;2023-08-20T09:27:39;17.40;99.90
44047;DHT22;29713;-33.888;151.150;2023-08-20T09:30:07;17.50;99.90
44047;DHT22;29713;-33.888;151.150;2023-08-20T09:32:35;17.50;99.90
44047;DHT22;29713;-33.888;151.150;2023-08-20T09:35:02;17.50;99.90
44047;DHT22;29713;-33.888;151.150;2023-08-20T09:37:29;17.50;99.90
44047;DHT22;29713;-33.888;151.150;2023-08-20T09:39:59;17.50;99.90
44047;DHT22;29713;-33.888;151.150;2023-08-20T09:42:28;17.50;99.90
44047;DHT22;29713;-33.888;151.150;2023-08-20T09:45:01;17.40;99.90
44047;DHT22;29713;-33.888;151.150;2023-08-20T09:47:35;17.40;99.90
44047;DHT22;29713;-33.888;151.150;2023-08-20T09:50:06;17.40;99.90
44047;DHT22;29713;-33.888;151.150;2023-08-20T09:53:02;17.40;99.90
44047;DHT22;29713;-33.888;151.150;2023-08-20T09:55:34;17.30;99.90
44047;DHT22;29713;-33.888;151.150;2023-08-20T09:58:02;17.30;99.90
44047;DHT22;29713;-33.888;151.150;2023-08-20T10:00:31;17.30;99.90
44047;DHT22;29713;-33.888;151.150;2023-08-20T10:03:00;17.20;99.90
44047;DHT22;29713;-33.888;151.150;2023-08-20T10:05:28;17.20;99.90
44047;DHT22;29713;-33.888;151.150;2023-08-20T10:07:56;17.20;99.90
44047;DHT22;29713;-33.888;151.150;2023-08-20T10:10:25;17.20;99.90
44047;DHT22;29713;-33.888;151.150;2023-08-20T10:12:52;17.10;99.90
44047;DHT22;29713;-33.888;151.150;2023-08-20T10:15:21;17.10;99.90
44047;DHT22;29713;-33.888;151.150;2023-08-20T10:17:50;17.10;99.90
44047;DHT22;29713;-33.888;151.150;2023-08-20T10:20:18;17.10;99.90
44047;DHT22;29713;-33.888;151.150;2023-08-20T10:22:46;17.10;99.90
44047;DHT22;29713;-33.888;151.150;2023-08-20T10:25:24;17.00;99.90
44047;DHT22;29713;-33.888;151.150;2023-08-20T10:27:52;17.00;99.90
44047;DHT22;29713;-33.888;151.150;2023-08-20T10:30:26;17.00;99.90
44047;DHT22;29713;-33.888;151.150;2023-08-20T10:32:56;17.00;99.90
44047;DHT22;29713;-33.888;151.150;2023-08-20T10:35:25;17.10;99.90
44047;DHT22;29713;-33.888;151.150;2023-08-20T10:38:06;17.10;99.90
44047;DHT22;29713;-33.888;151.150;2023-08-20T10:40:58;17.10;99.90
44047;DHT22;29713;-33.888;151.150;2023-08-20T10:43:30;17.10;99.90
44047;DHT22;29713;-33.888;151.150;2023-08-20T10:46:10;17.00;99.90
44047;DHT22;29713;-33.888;151.150;2023-08-20T10:48:41;17.00;99.90
44047;DHT22;29713;-33.888;151.150;2023-08-20T10:51:18;16.90;99.90
44047;DHT22;29713;-33.888;151.150;2023-08-20T10:56:48;16.90;99.90
44047;DHT22;29713;-33.888;151.150;2023-08-20T10:59:22;16.80;99.90
44047;DHT22;29713;-33.888;151.150;2023-08-20T11:01:55;16.70;99.90
44047;DHT22;29713;-33.888;151.150;2023-08-20T11:04:27;16.60;99.90
44047;DHT22;29713;-33.888;151.150;2023-08-20T11:06:56;16.60;99.90
44047;DHT22;29713;-33.888;151.150;2023-08-20T11:09:25;16.50;99.90
44047;DHT22;29713;-33.888;151.150;2023-08-20T11:11:53;16.40;99.90
44047;DHT22;29713;-33.888;151.150;2023-08-20T11:14:21;16.30;99.90
44047;DHT22;29713;-33.888;151.150;2023-08-20T11:16:49;16.20;99.90
44047;DHT22;29713;-33.888;151.150;2023-08-20T11:19:24;16.10;99.90
44047;DHT22;29713;-33.888;151.150;2023-08-20T11:21:51;16.00;99.90
44047;DHT22;29713;-33.888;151.150;2023-08-20T11:24:19;16.00;99.90
44047;DHT22;29713;-33.888;151.150;2023-08-20T11:26:47;15.90;99.90
44047;DHT22;29713;-33.888;151.150;2023-08-20T11:29:16;15.90;99.90
44047;DHT22;29713;-33.888;151.150;2023-08-20T11:31:50;15.80;99.90
44047;DHT22;29713;-33.888;151.150;2023-08-20T11:34:19;15.80;99.90
44047;DHT22;29713;-33.888;151.150;2023-08-20T11:36:46;15.80;99.90
44047;DHT22;29713;-33.888;151.150;2023-08-20T11:39:18;15.70;99.90
44047;DHT22;29713;-33.888;151.150;2023-08-20T11:41:45;15.70;99.90
44047;DHT22;29713;-33.888;151.150;2023-08-20T11:44:20;15.60;99.90
44047;DHT22;29713;-33.888;151.150;2023-08-20T11:46:52;15.60;99.90
44047;DHT22;29713;-33.888;151.150;2023-08-20T11:49:27;15.60;99.90
44047;DHT22;29713;-33.888;151.150;2023-08-20T11:51:56;15.60;99.90
44047;DHT22;29713;-33.888;151.150;2023-08-20T11:54:23;15.50;99.90
44047;DHT22;29713;-33.888;151.150;2023-08-20T11:56:52;15.50;99.90
44047;DHT22;29713;-33.888;151.150;2023-08-20T11:59:28;15.30;99.90
44047;DHT22;29713;-33.888;151.150;2023-08-20T12:01:57;15.40;99.90
44047;DHT22;29713;-33.888;151.150;2023-08-20T12:04:28;15.40;99.90
44047;DHT22;29713;-33.888;151.150;2023-08-20T12:07:04;15.30;99.90
44047;DHT22;29713;-33.888;151.150;2023-08-20T12:09:32;15.20;99.90
44047;DHT22;29713;-33.888;151.150;2023-08-20T12:11:59;15.20;99.90
44047;DHT22;29713;-33.888;151.150;2023-08-20T12:14:27;15.10;99.90
44047;DHT22;29713;-33.888;151.150;2023-08-20T12:16:55;15.10;99.90
44047;DHT22;29713;-33.888;151.150;2023-08-20T12:19:23;15.10;99.90
44047;DHT22;29713;-33.888;151.150;2023-08-20T12:21:50;15.00;99.90
44047;DHT22;29713;-33.888;151.150;2023-08-20T12:24:18;15.00;99.90
44047;DHT22;29713;-33.888;151.150;2023-08-20T12:26:49;14.90;99.90
44047;DHT22;29713;-33.888;151.150;2023-08-20T12:29:16;14.90;99.90
44047;DHT22;29713;-33.888;151.150;2023-08-20T12:31:44;14.90;99.90
44047;DHT22;29713;-33.888;151.150;2023-08-20T12:34:11;14.90;99.90
44047;DHT22;29713;-33.888;151.150;2023-08-20T12:36:38;14.90;99.90
44047;DHT22;29713;-33.888;151.150;2023-08-20T12:39:06;14.90;99.90
44047;DHT22;29713;-33.888;151.150;2023-08-20T12:41:33;14.90;99.90
44047;DHT22;29713;-33.888;151.150;2023-08-20T12:44:03;14.90;99.90
44047;DHT22;29713;-33.888;151.150;2023-08-20T12:46:30;14.90;99.90
44047;DHT22;29713;-33.888;151.150;2023-08-20T12:48:57;15.00;99.90
44047;DHT22;29713;-33.888;151.150;2023-08-20T12:51:25;15.00;99.90
44047;DHT22;29713;-33.888;151.150;2023-08-20T12:53:53;15.00;99.90
44047;DHT22;29713;-33.888;151.150;2023-08-20T12:56:20;15.00;99.90
44047;DHT22;29713;-33.888;151.150;2023-08-20T12:58:47;15.10;99.90
44047;DHT22;29713;-33.888;151.150;2023-08-20T13:01:15;15.00;99.90
44047;DHT22;29713;-33.888;151.150;2023-08-20T13:03:43;15.00;99.90
44047;DHT22;29713;-33.888;151.150;2023-08-20T13:06:11;15.10;99.90
44047;DHT22;29713;-33.888;151.150;2023-08-20T13:08:39;15.10;99.90
44047;DHT22;29713;-33.888;151.150;2023-08-20T13:11:10;15.10;99.90
44047;DHT22;29713;-33.888;151.150;2023-08-20T13:13:38;15.00;99.90
44047;DHT22;29713;-33.888;151.150;2023-08-20T13:16:06;15.10;99.90
44047;DHT22;29713;-33.888;151.150;2023-08-20T13:18:34;15.10;99.90
44047;DHT22;29713;-33.888;151.150;2023-08-20T13:21:02;15.00;99.90
44047;DHT22;29713;-33.888;151.150;2023-08-20T13:23:30;15.00;99.90
44047;DHT22;29713;-33.888;151.150;2023-08-20T13:25:57;15.00;99.90
44047;DHT22;29713;-33.888;151.150;2023-08-20T13:28:25;15.00;99.90
44047;DHT22;29713;-33.888;151.150;2023-08-20T13:30:52;15.10;99.90
44047;DHT22;29713;-33.888;151.150;2023-08-20T13:33:19;15.20;99.90
44047;DHT22;29713;-33.888;151.150;2023-08-20T13:35:47;15.10;99.90
44047;DHT22;29713;-33.888;151.150;2023-08-20T13:38:14;15.10;99.90
44047;DHT22;29713;-33.888;151.150;2023-08-20T13:40:41;15.10;99.90
44047;DHT22;29713;-33.888;151.150;2023-08-20T13:43:09;15.00;99.90
44047;DHT22;29713;-33.888;151.150;2023-08-20T13:45:36;15.00;99.90
44047;DHT22;29713;-33.888;151.150;2023-08-20T13:48:03;15.00;99.90
44047;DHT22;29713;-33.888;151.150;2023-08-20T13:50:31;14.90;99.90
44047;DHT22;29713;-33.888;151.150;2023-08-20T13:52:58;14.90;99.90
44047;DHT22;29713;-33.888;151.150;2023-08-20T13:55:26;14.90;99.90
44047;DHT22;29713;-33.888;151.150;2023-08-20T13:57:53;14.80;99.90
44047;DHT22;29713;-33.888;151.150;2023-08-20T14:00:20;14.80;99.90
44047;DHT22;29713;-33.888;151.150;2023-08-20T14:02:48;14.80;99.90
44047;DHT22;29713;-33.888;151.150;2023-08-20T14:05:15;14.80;99.90
44047;DHT22;29713;-33.888;151.150;2023-08-20T14:07:42;14.80;99.90
44047;DHT22;29713;-33.888;151.150;2023-08-20T14:10:10;14.80;99.90
44047;DHT22;29713;-33.888;151.150;2023-08-20T14:12:37;14.80;99.90
44047;DHT22;29713;-33.888;151.150;2023-08-20T14:15:05;14.70;99.90
44047;DHT22;29713;-33.888;151.150;2023-08-20T14:17:32;14.70;99.90
44047;DHT22;29713;-33.888;151.150;2023-08-20T14:20:00;14.70;99.90
44047;DHT22;29713;-33.888;151.150;2023-08-20T14:22:27;14.60;99.90
44047;DHT22;29713;-33.888;151.150;2023-08-20T14:24:55;14.60;99.90
44047;DHT22;29713;-33.888;151.150;2023-08-20T14:27:22;14.60;99.90
44047;DHT22;29713;-33.888;151.150;2023-08-20T14:29:49;14.60;99.90
44047;DHT22;29713;-33.888;151.150;2023-08-20T14:32:16;14.60;99.90
44047;DHT22;29713;-33.888;151.150;2023-08-20T14:34:44;14.60;99.90
44047;DHT22;29713;-33.888;151.150;2023-08-20T14:37:11;14.60;99.90
44047;DHT22;29713;-33.888;151.150;2023-08-20T14:39:40;14.60;99.90
44047;DHT22;29713;-33.888;151.150;2023-08-20T14:42:08;14.70;99.90
44047;DHT22;29713;-33.888;151.150;2023-08-20T14:44:35;14.60;99.90
44047;DHT22;29713;-33.888;151.150;2023-08-20T14:47:03;14.70;99.90
44047;DHT22;29713;-33.888;151.150;2023-08-20T14:49:31;14.70;99.90
44047;DHT22;29713;-33.888;151.150;2023-08-20T14:51:58;14.80;99.90
44047;DHT22;29713;-33.888;151.150;2023-08-20T14:54:28;14.80;99.90
44047;DHT22;29713;-33.888;151.150;2023-08-20T14:56:56;14.90;99.90
44047;DHT22;29713;-33.888;151.150;2023-08-20T14:59:23;14.90;99.90
44047;DHT22;29713;-33.888;151.150;2023-08-20T15:01:52;14.80;99.90
44047;DHT22;29713;-33.888;151.150;2023-08-20T15:04:19;14.80;99.90
44047;DHT22;29713;-33.888;151.150;2023-08-20T15:06:46;14.80;99.90